British Trader — ZIPR7 — position and weather

sailwx.info

Track history (hours):
 
Tides and Currents Weather Stations Pressure Air Temp Water Temp Dewpoint Dewpoint Depression Visibility Wind Speed Wind Dir Waves Ship Positions

British Trader

Last reported at 2018-Jul-21 12:07 UTC. Time now 2018-Aug-17 03:14 UTC.
Position N 33°44' E 134°56'.
Warning: this ship's position is 26 days out of date.

Length 278.9 m; beam 42.6 m; draft 12.1 m.

Type: Tanker. MMSI: 235496000.

Date/timePositionNaut miles runAvg speedWind from/ knotsBaromVisibWave heightAir tempDewpointWater temp
2018-Jul-21 12:07N 33°44' E 134°56'211.3
2018-Jul-21 11:57N 33°46' E 134°56'511.6
2018-Jul-21 11:30N 33°51' E 134°56'611.2
2018-Jul-21 11:00N 33°57' E 134°56'510.8
2018-Jul-21 10:31N 34°02' E 134°56'510.9
2018-Jul-21 10:01N 34°08' E 134°57'611.6
2018-Jul-21 09:30N 34°13' E 134°57'5 9.8
2018-Jul-21 09:00N 34°18' E 134°59'714.5
2018-Jul-21 08:31N 34°25' E 135°01'714.9
2018-Jul-21 08:01N 34°32' E 135°04'3 6.7
2018-Jul-21 07:30N 34°35' E 135°04'911.9
2018-Jul-21 06:43N 34°35' E 134°53'313.9
2018-Jul-21 06:30N 34°33' E 134°49'714.6
2018-Jul-21 06:01N 34°31' E 134°41'815.7
2018-Jul-21 05:31N 34°28' E 134°32'815.7
2018-Jul-21 05:00N 34°25' E 134°23'24 0.8
2018-Jul-19 22:29N 34°24' E 133°55'1311.1
2018-Jul-19 21:18N 34°25' E 134°11'311.7
2018-Jul-19 21:00N 34°24' E 134°15'611.3
2018-Jul-19 20:30N 34°25' E 134°22'611.5
2018-Jul-19 20:01N 34°27' E 134°28'612.0
2018-Jul-19 19:31N 34°29' E 134°35'612.2
2018-Jul-19 19:01N 34°31' E 134°42'712.9
2018-Jul-19 18:30N 34°34' E 134°49'814.8
2018-Jul-19 17:58N 34°37' E 134°58'613.4
2018-Jul-19 17:30N 34°35' E 135°05'4 7.4
2018-Jul-19 17:00N 34°33' E 135°09'4 7.7
2018-Jul-19 16:30N 34°30' E 135°07'4 8.0
2018-Jul-19 16:00N 34°26' E 135°05'5 9.3
2018-Jul-19 15:30N 34°22' E 135°02'612.2
2018-Jul-19 15:00N 34°16' E 134°59'612.2
2018-Jul-19 14:30N 34°10' E 135°01'1010.1
2018-Jul-19 13:31N 34°00' E 134°59'612.1
2018-Jul-19 13:01N 33°54' E 134°57'611.9
2018-Jul-19 12:29N 33°48' E 134°56'  
Track history (hours):
 
Tides and Currents Weather Stations Pressure Air Temp Water Temp Dewpoint Dewpoint Depression Visibility Wind Speed Wind Dir Waves Ship Positions

British Trader

Last reported at 2018-Jul-21 12:07 UTC. Time now 2018-Aug-17 03:14 UTC.
Position N 33°44' E 134°56'.
Warning: this ship's position is 26 days out of date.

Length 278.9 m; beam 42.6 m; draft 12.1 m.

Type: Tanker. MMSI: 235496000.

Date/timePositionNaut miles runAvg speedWind from/ knotsBaromVisibWave heightAir tempDewpointWater temp
2018-Jul-21 12:07N 33°44' E 134°56'211.3
2018-Jul-21 11:57N 33°46' E 134°56'511.6
2018-Jul-21 11:30N 33°51' E 134°56'611.2
2018-Jul-21 11:00N 33°57' E 134°56'510.8
2018-Jul-21 10:31N 34°02' E 134°56'510.9
2018-Jul-21 10:01N 34°08' E 134°57'611.6
2018-Jul-21 09:30N 34°13' E 134°57'5 9.8
2018-Jul-21 09:00N 34°18' E 134°59'714.5
2018-Jul-21 08:31N 34°25' E 135°01'714.9
2018-Jul-21 08:01N 34°32' E 135°04'3 6.7
2018-Jul-21 07:30N 34°35' E 135°04'911.9
2018-Jul-21 06:43N 34°35' E 134°53'313.9
2018-Jul-21 06:30N 34°33' E 134°49'714.6
2018-Jul-21 06:01N 34°31' E 134°41'815.7
2018-Jul-21 05:31N 34°28' E 134°32'815.7
2018-Jul-21 05:00N 34°25' E 134°23'24 0.8
2018-Jul-19 22:29N 34°24' E 133°55'1311.1
2018-Jul-19 21:18N 34°25' E 134°11'311.7
2018-Jul-19 21:00N 34°24' E 134°15'611.3
2018-Jul-19 20:30N 34°25' E 134°22'611.5
2018-Jul-19 20:01N 34°27' E 134°28'612.0
2018-Jul-19 19:31N 34°29' E 134°35'612.2
2018-Jul-19 19:01N 34°31' E 134°42'712.9
2018-Jul-19 18:30N 34°34' E 134°49'814.8
2018-Jul-19 17:58N 34°37' E 134°58'613.4
2018-Jul-19 17:30N 34°35' E 135°05'4 7.4
2018-Jul-19 17:00N 34°33' E 135°09'4 7.7
2018-Jul-19 16:30N 34°30' E 135°07'4 8.0
2018-Jul-19 16:00N 34°26' E 135°05'5 9.3
2018-Jul-19 15:30N 34°22' E 135°02'612.2
2018-Jul-19 15:00N 34°16' E 134°59'612.2
2018-Jul-19 14:30N 34°10' E 135°01'1010.1
2018-Jul-19 13:31N 34°00' E 134°59'612.1
2018-Jul-19 13:01N 33°54' E 134°57'611.9
2018-Jul-19 12:29N 33°48' E 134°56'  

Dump ship's entire track history